createdAt,value
2023-02-07T00:00:28.827Z,9.667982
2023-02-07T00:01:28.805Z,9.667953
2023-02-07T00:02:28.758Z,9.667873
2023-02-07T00:03:28.763Z,9.667948
2023-02-07T00:04:28.736Z,9.667975
2023-02-07T00:05:28.747Z,9.668037
2023-02-07T00:06:28.728Z,9.667990
2023-02-07T00:07:28.733Z,9.667993
2023-02-07T00:08:28.721Z,9.668002
2023-02-07T00:09:28.735Z,9.668011
2023-02-07T00:10:28.670Z,9.668039
2023-02-07T00:11:28.682Z,9.668006
2023-02-07T00:12:28.721Z,9.668024
2023-02-07T00:13:28.704Z,9.668032
2023-02-07T00:14:28.702Z,9.668013
2023-02-07T00:15:28.642Z,9.668079
2023-02-07T00:16:28.723Z,9.668023
2023-02-07T00:17:28.638Z,9.667998
2023-02-07T00:19:00.637Z,9.668036
2023-02-07T00:19:28.655Z,9.667971
2023-02-07T00:20:28.628Z,9.668054
2023-02-07T00:21:28.616Z,9.667979
2023-02-07T00:22:28.724Z,9.668015
2023-02-07T00:23:28.574Z,9.667944
2023-02-07T00:24:28.582Z,9.667973
2023-02-07T00:25:29.496Z,9.667952
2023-02-07T00:26:28.587Z,9.668008
2023-02-07T00:27:28.587Z,9.668011
2023-02-07T00:28:28.730Z,9.668048
2023-02-07T00:29:28.565Z,9.668043
2023-02-07T00:30:28.575Z,9.668069
2023-02-07T00:31:28.745Z,9.668030
2023-02-07T00:32:28.548Z,9.668025
2023-02-07T00:33:28.639Z,9.668021
2023-02-07T00:34:28.518Z,9.668036
2023-02-07T00:35:28.497Z,9.668034
2023-02-07T00:36:28.500Z,9.667985
2023-02-07T00:37:28.493Z,9.668017
2023-02-07T00:38:28.484Z,9.667968
2023-02-07T00:39:28.502Z,9.667947
2023-02-07T00:40:28.504Z,9.667895
2023-02-07T00:41:28.497Z,9.668003
2023-02-07T00:42:28.456Z,9.667980
2023-02-07T00:43:30.145Z,9.667968
2023-02-07T00:44:29.507Z,9.667960
2023-02-07T00:45:28.417Z,9.667985
2023-02-07T00:46:28.559Z,9.668030
2023-02-07T00:47:28.409Z,9.667922
2023-02-07T00:48:28.410Z,9.667957
2023-02-07T00:49:28.430Z,9.667969
2023-02-07T00:50:28.372Z,9.667981
2023-02-07T00:51:28.408Z,9.668071
2023-02-07T00:52:28.382Z,9.668003
2023-02-07T00:53:28.380Z,9.667988
2023-02-07T00:54:28.411Z,9.668000
2023-02-07T00:55:28.383Z,9.667972
2023-02-07T00:56:28.382Z,9.668014
2023-02-07T00:57:28.326Z,9.668016
2023-02-07T00:58:28.349Z,9.667998
2023-02-07T00:59:28.345Z,9.668014
2023-02-07T01:00:28.346Z,9.667912
2023-02-07T01:01:28.445Z,9.667923
2023-02-07T01:02:28.303Z,9.667986
2023-02-07T01:03:28.293Z,9.668075
2023-02-07T01:04:28.336Z,9.667979
2023-02-07T01:05:28.488Z,9.668009
2023-02-07T01:06:28.286Z,9.668049
2023-02-07T01:07:28.278Z,9.668075
2023-02-07T01:08:28.276Z,9.668040
2023-02-07T01:09:28.268Z,9.667987
2023-02-07T01:10:28.306Z,9.667966
2023-02-07T01:11:28.274Z,9.667931
2023-02-07T01:12:28.252Z,9.667909
2023-02-07T01:13:28.218Z,9.667991
2023-02-07T01:14:28.256Z,9.667968
2023-02-07T01:15:28.369Z,9.668053
2023-02-07T01:16:28.260Z,9.667930
2023-02-07T01:17:28.231Z,9.668018
2023-02-07T01:18:28.229Z,9.668038
2023-02-07T01:19:28.183Z,9.668036
2023-02-07T01:20:28.176Z,9.667962
2023-02-07T01:21:28.193Z,9.667941
2023-02-07T01:22:28.171Z,9.668019
2023-02-07T01:23:28.145Z,9.667980
2023-02-07T01:24:28.133Z,9.667953
2023-02-07T01:25:28.124Z,9.667954
2023-02-07T01:26:28.194Z,9.667920
2023-02-07T01:27:28.930Z,9.668039
2023-02-07T01:28:28.133Z,9.667948
2023-02-07T01:29:28.092Z,9.668007
2023-02-07T01:30:28.145Z,9.668019
2023-02-07T01:31:28.189Z,9.667930
2023-02-07T01:32:28.112Z,9.668008
2023-02-07T01:33:28.096Z,9.668038
2023-02-07T01:34:28.061Z,9.668031
2023-02-07T01:35:28.087Z,9.668068
2023-02-07T01:36:28.108Z,9.668058
2023-02-07T01:37:28.090Z,9.668006
2023-02-07T01:38:28.048Z,9.668013
2023-02-07T01:39:28.086Z,9.668054
2023-02-07T01:40:28.055Z,9.667995
2023-02-07T01:41:28.046Z,9.668003
2023-02-07T01:42:27.999Z,9.667990
2023-02-07T01:43:28.002Z,9.667999
2023-02-07T01:44:28.109Z,9.668001
2023-02-07T01:45:27.980Z,9.667950
2023-02-07T01:46:28.074Z,9.667949
2023-02-07T01:47:27.976Z,9.667971
2023-02-07T01:48:28.032Z,9.667985
2023-02-07T01:49:27.981Z,9.668031
2023-02-07T01:50:27.977Z,9.668019
2023-02-07T01:51:27.962Z,9.668083
2023-02-07T01:52:27.920Z,9.668065
2023-02-07T01:53:27.941Z,9.668037
2023-02-07T01:54:27.932Z,9.667987
2023-02-07T01:55:27.968Z,9.667974
2023-02-07T01:56:32.120Z,9.667970
2023-02-07T01:57:28.888Z,9.667973
2023-02-07T01:58:27.946Z,9.667982
2023-02-07T01:59:27.893Z,9.668008
2023-02-07T02:00:27.868Z,9.667989
2023-02-07T02:01:27.921Z,9.667985
2023-02-07T02:02:27.910Z,9.668023
2023-02-07T02:03:27.824Z,9.668036
2023-02-07T02:04:27.868Z,9.668037
2023-02-07T02:05:27.893Z,9.668024
2023-02-07T02:06:27.823Z,9.668050
2023-02-07T02:07:28.424Z,9.668030
2023-02-07T02:08:27.795Z,9.668130
2023-02-07T02:09:27.806Z,9.668144
2023-02-07T02:10:27.814Z,9.668056
2023-02-07T02:11:28.507Z,9.668008
2023-02-07T02:12:28.776Z,9.668027
2023-02-07T02:13:27.770Z,9.668033
2023-02-07T02:14:27.772Z,9.668085
2023-02-07T02:15:27.756Z,9.668071
2023-02-07T02:16:27.797Z,9.668077
2023-02-07T02:17:27.775Z,9.668062
2023-02-07T02:18:27.744Z,9.668048
2023-02-07T02:19:27.736Z,9.668053
2023-02-07T02:20:27.722Z,9.668072
2023-02-07T02:21:59.643Z,9.668040
2023-02-07T02:22:27.720Z,9.668008
2023-02-07T02:23:27.761Z,9.668029
2023-02-07T02:24:27.703Z,9.668056
2023-02-07T02:25:27.676Z,9.668088
2023-02-07T02:26:27.717Z,9.668073
2023-02-07T02:27:27.710Z,9.668061
2023-02-07T02:28:27.652Z,9.668049
2023-02-07T02:29:27.644Z,9.668039
2023-02-07T02:30:27.668Z,9.668053
2023-02-07T02:31:27.675Z,9.668052
2023-02-07T02:32:27.647Z,9.668029
2023-02-07T02:33:27.705Z,9.668031
2023-02-07T02:34:27.631Z,9.668041
2023-02-07T02:35:27.610Z,9.668066
2023-02-07T02:36:27.605Z,9.668047
2023-02-07T02:37:27.604Z,9.668025
2023-02-07T02:38:27.630Z,9.668032
2023-02-07T02:39:27.592Z,9.668059
2023-02-07T02:40:27.559Z,9.668045
2023-02-07T02:41:27.569Z,9.668040
2023-02-07T02:42:27.562Z,9.668092
2023-02-07T02:43:27.569Z,9.667973
2023-02-07T02:44:27.544Z,9.668072
2023-02-07T02:45:27.539Z,9.668085
2023-02-07T02:46:27.583Z,9.668054
2023-02-07T02:47:27.550Z,9.668016
2023-02-07T02:48:27.515Z,9.668011
2023-02-07T02:49:27.523Z,9.668064
2023-02-07T02:50:27.491Z,9.668054
2023-02-07T02:51:27.510Z,9.668032
2023-02-07T02:52:40.734Z,9.668046
2023-02-07T02:53:29.470Z,9.668043
2023-02-07T02:54:27.550Z,9.668054
2023-02-07T02:55:27.505Z,9.668067
2023-02-07T02:56:27.499Z,9.668065
2023-02-07T02:57:27.461Z,9.668093
2023-02-07T02:58:27.457Z,9.668078
2023-02-07T02:59:27.440Z,9.668071
2023-02-07T03:00:27.456Z,9.668082
2023-02-07T03:01:27.503Z,9.668115
2023-02-07T03:02:27.404Z,9.668086
2023-02-07T03:03:27.420Z,9.668064
2023-02-07T03:04:27.403Z,9.668026
2023-02-07T03:05:27.538Z,9.668061
2023-02-07T03:06:27.388Z,9.668039
2023-02-07T03:07:27.379Z,9.668086
2023-02-07T03:08:27.381Z,9.668119
2023-02-07T03:09:27.361Z,9.668054
2023-02-07T03:10:28.371Z,9.668061
2023-02-07T03:11:27.981Z,9.668045
2023-02-07T03:12:27.372Z,9.668033
2023-02-07T03:13:27.339Z,9.667980
2023-02-07T03:14:27.319Z,9.667987
2023-02-07T03:15:27.340Z,9.668002
2023-02-07T03:16:27.322Z,9.668037
2023-02-07T03:17:27.319Z,9.668037
2023-02-07T03:18:27.285Z,9.668003
2023-02-07T03:19:27.281Z,9.668028
2023-02-07T03:20:27.410Z,9.668006
2023-02-07T03:21:27.297Z,9.668014
2023-02-07T03:22:27.264Z,9.667997
2023-02-07T03:23:27.253Z,9.668011
2023-02-07T03:24:27.233Z,9.668011
2023-02-07T03:25:27.249Z,9.667977
2023-02-07T03:26:27.284Z,9.667992
2023-02-07T03:27:27.226Z,9.667929
2023-02-07T03:28:27.263Z,9.668020
2023-02-07T03:29:27.187Z,9.668068
2023-02-07T03:30:27.225Z,9.668033
2023-02-07T03:31:27.277Z,9.668008
2023-02-07T03:32:27.194Z,9.667976
2023-02-07T03:33:27.182Z,9.668017
2023-02-07T03:34:27.173Z,9.667923
2023-02-07T03:35:27.193Z,9.667953
2023-02-07T03:36:27.161Z,9.667974
2023-02-07T03:37:27.157Z,9.667997
2023-02-07T03:38:27.190Z,9.667992
2023-02-07T03:39:27.166Z,9.667974
2023-02-07T03:40:27.115Z,9.667944
2023-02-07T03:41:27.108Z,9.668000
2023-02-07T03:42:27.093Z,9.667995
2023-02-07T03:43:27.101Z,9.667923
2023-02-07T03:44:27.106Z,9.667961
2023-02-07T03:45:27.111Z,9.667935
2023-02-07T03:46:27.106Z,9.667950
2023-02-07T03:47:27.093Z,9.667941
2023-02-07T04:07:07.738Z,9.668038
2023-02-07T04:08:07.153Z,9.668066
2023-02-07T04:09:07.170Z,9.668015
2023-02-07T04:10:07.166Z,9.667993
2023-02-07T04:11:07.182Z,9.668090
2023-02-07T04:12:07.186Z,9.668095
2023-02-07T04:13:07.155Z,9.668078
2023-02-07T04:14:07.103Z,9.668082
2023-02-07T04:15:07.120Z,9.668077
2023-02-07T04:16:07.161Z,9.668096
2023-02-07T04:17:07.112Z,9.668093
2023-02-07T04:18:07.075Z,9.668107
2023-02-07T04:19:07.074Z,9.668076
2023-02-07T04:20:07.075Z,9.668073
2023-02-07T04:21:07.135Z,9.668088
2023-02-07T04:22:07.068Z,9.668076
2023-02-07T04:23:07.072Z,9.668098
2023-02-07T04:24:07.072Z,9.668070
2023-02-07T04:25:07.046Z,9.668057
2023-02-07T04:26:07.134Z,9.668056
2023-02-07T04:27:07.027Z,9.668068
2023-02-07T04:28:07.075Z,9.668054
2023-02-07T04:29:07.075Z,9.668080
2023-02-07T04:30:07.048Z,9.668070
2023-02-07T04:31:07.006Z,9.668032
2023-02-07T04:32:07.078Z,9.668040
2023-02-07T04:33:06.994Z,9.668025
2023-02-07T04:34:06.977Z,9.668079
2023-02-07T04:35:06.970Z,9.668137
2023-02-07T04:36:06.965Z,9.668124
2023-02-07T04:37:06.949Z,9.668084
2023-02-07T04:38:06.968Z,9.668065
2023-02-07T04:39:06.959Z,9.668039
2023-02-07T04:40:06.928Z,9.668095
2023-02-07T04:41:06.929Z,9.668107
2023-02-07T04:42:06.909Z,9.668053
2023-02-07T04:43:06.906Z,9.668046
2023-02-07T04:44:06.933Z,9.668091
2023-02-07T04:45:06.865Z,9.668093
2023-02-07T04:46:06.940Z,9.668100
2023-02-07T04:47:06.859Z,9.668059
2023-02-07T04:48:06.878Z,9.668072
2023-02-07T04:49:06.870Z,9.668034
2023-02-07T04:50:06.899Z,9.668041
2023-02-07T04:51:06.873Z,9.668072
2023-02-07T04:52:06.837Z,9.668038
2023-02-07T04:53:06.831Z,9.668094
2023-02-07T04:54:06.860Z,9.668037
2023-02-07T04:55:06.842Z,9.668057
2023-02-07T04:56:06.813Z,9.668017
2023-02-07T04:57:06.832Z,9.668093
2023-02-07T04:58:06.817Z,9.668036
2023-02-07T04:59:06.814Z,9.668031
2023-02-07T05:00:06.788Z,9.668035
2023-02-07T05:01:06.797Z,9.668038
2023-02-07T05:02:06.757Z,9.668019
2023-02-07T05:03:06.765Z,9.668003
2023-02-07T05:04:06.827Z,9.668030
2023-02-07T05:05:06.738Z,9.668034
2023-02-07T05:06:06.722Z,9.668065
2023-02-07T05:07:06.729Z,9.668036
2023-02-07T05:08:06.712Z,9.668019
2023-02-07T05:09:06.719Z,9.668059
2023-02-07T05:10:06.754Z,9.668023
2023-02-07T05:11:06.693Z,9.668037
2023-02-07T05:12:06.681Z,9.668007
2023-02-07T05:13:06.714Z,9.668046
2023-02-07T05:14:06.706Z,9.668004
2023-02-07T05:15:06.705Z,9.667975
2023-02-07T05:16:06.713Z,9.668005
2023-02-07T05:17:06.649Z,9.668025
2023-02-07T05:18:06.658Z,9.668022
2023-02-07T05:19:06.657Z,9.667956
2023-02-07T05:20:06.632Z,9.667970
2023-02-07T05:21:06.649Z,9.667982
2023-02-07T05:22:06.629Z,9.668036
2023-02-07T05:23:06.633Z,9.668012
2023-02-07T05:24:06.603Z,9.668046
2023-02-07T05:25:06.604Z,9.668077
2023-02-07T05:26:06.615Z,9.668074
2023-02-07T05:27:06.593Z,9.668084
2023-02-07T05:28:06.644Z,9.668020
2023-02-07T05:29:06.570Z,9.668006
2023-02-07T05:30:06.547Z,9.667996
2023-02-07T05:31:06.692Z,9.667968
2023-02-07T05:32:06.982Z,9.667949
2023-02-07T05:33:07.536Z,9.667979
2023-02-07T05:34:06.543Z,9.668033
2023-02-07T05:35:06.551Z,9.667991
2023-02-07T05:36:06.521Z,9.668001
2023-02-07T05:37:06.506Z,9.667985
2023-02-07T05:38:06.521Z,9.667999
2023-02-07T05:39:06.496Z,9.668010
2023-02-07T05:40:06.539Z,9.668053
2023-02-07T05:41:06.474Z,9.668006
2023-02-07T05:42:06.482Z,9.668039
2023-02-07T05:43:06.462Z,9.668009
2023-02-07T05:44:06.524Z,9.668013
2023-02-07T05:45:06.452Z,9.667994
2023-02-07T05:46:06.516Z,9.667977
2023-02-07T05:47:06.453Z,9.667999
2023-02-07T05:48:06.483Z,9.668010
2023-02-07T05:49:06.422Z,9.667979
2023-02-07T05:50:06.427Z,9.667980
2023-02-07T05:51:06.405Z,9.668035
2023-02-07T05:52:06.389Z,9.667995
2023-02-07T05:53:06.423Z,9.667950
2023-02-07T05:54:06.839Z,9.668064
2023-02-07T05:55:07.343Z,9.668047
2023-02-07T05:56:06.388Z,9.667999
2023-02-07T05:57:06.412Z,9.668019
2023-02-07T05:58:06.445Z,9.668060
2023-02-07T05:59:06.343Z,9.667986
2023-02-07T06:00:06.356Z,9.668014
2023-02-07T06:01:06.317Z,9.668048
2023-02-07T06:02:06.400Z,9.667999
2023-02-07T06:03:06.387Z,9.668039
2023-02-07T06:04:06.335Z,9.667998
2023-02-07T06:05:06.314Z,9.667919
2023-02-07T06:06:06.310Z,9.667953
2023-02-07T06:07:06.288Z,9.667980
2023-02-07T06:08:06.273Z,9.667983
2023-02-07T06:09:06.276Z,9.667962
2023-02-07T06:10:06.269Z,9.667973
2023-02-07T06:11:06.238Z,9.667979
2023-02-07T06:12:06.232Z,9.667994
2023-02-07T06:13:06.222Z,9.668040
2023-02-07T06:14:06.231Z,9.668048
2023-02-07T06:15:06.214Z,9.668092
2023-02-07T06:16:06.290Z,9.668046
2023-02-07T06:17:06.199Z,9.668032
2023-02-07T06:18:20.263Z,9.667978
2023-02-07T06:19:12.676Z,9.668047
2023-02-07T06:20:12.391Z,9.668069
2023-02-07T06:21:07.173Z,9.668070
2023-02-07T06:22:07.415Z,9.668016
2023-02-07T06:23:07.245Z,9.668015
2023-02-07T06:24:07.153Z,9.667961
2023-02-07T06:25:07.421Z,9.667961
2023-02-07T06:26:07.645Z,9.667989
2023-02-07T06:27:08.664Z,9.667967
2023-02-07T06:28:06.793Z,9.667974
2023-02-07T06:29:07.142Z,9.668014
2023-02-07T06:30:07.191Z,9.667975
2023-02-07T06:31:07.225Z,9.667943
2023-02-07T06:32:06.485Z,9.668005
2023-02-07T06:33:07.292Z,9.667999
2023-02-07T06:34:08.207Z,9.667966
2023-02-07T06:35:07.600Z,9.667994
2023-02-07T06:36:09.226Z,9.667957
2023-02-07T06:37:06.159Z,9.667960
2023-02-07T06:38:06.136Z,9.667912
2023-02-07T06:39:06.186Z,9.667793
2023-02-07T06:40:06.064Z,9.667990
2023-02-07T06:41:06.055Z,9.667782
2023-02-07T06:42:06.128Z,9.667872
2023-02-07T06:43:08.755Z,9.667751
2023-02-07T06:44:06.138Z,9.667660
2023-02-07T06:45:06.055Z,9.667731
2023-02-07T06:46:06.094Z,9.667657
2023-02-07T06:47:06.109Z,9.667710
2023-02-07T06:48:06.125Z,9.667776
2023-02-07T06:49:06.041Z,9.667717
2023-02-07T06:50:07.621Z,9.667832
2023-02-07T06:51:06.058Z,9.667828
2023-02-07T06:52:06.016Z,9.667763
2023-02-07T06:53:06.514Z,9.667912
2023-02-07T06:54:05.974Z,9.667836
2023-02-07T06:55:07.003Z,9.667943
2023-02-07T06:56:05.974Z,9.667786
2023-02-07T06:57:06.388Z,9.667855
2023-02-07T06:58:05.942Z,9.667896
2023-02-07T06:59:05.995Z,9.667976
2023-02-07T07:00:06.593Z,9.668008
2023-02-07T07:01:05.945Z,9.667910
2023-02-07T07:02:05.992Z,9.667994
2023-02-07T07:03:06.981Z,9.668010
2023-02-07T07:04:05.981Z,9.667936
2023-02-07T07:05:05.893Z,9.667955
2023-02-07T07:06:06.768Z,9.667994
2023-02-07T07:07:05.979Z,9.668003
2023-02-07T07:08:05.949Z,9.667984
2023-02-07T07:09:06.898Z,9.667980
2023-02-07T07:10:05.942Z,9.667977
2023-02-07T07:11:05.921Z,9.667980
2023-02-07T07:12:05.881Z,9.667975
2023-02-07T07:13:05.871Z,9.667963
2023-02-07T07:14:05.866Z,9.667947
2023-02-07T07:15:05.848Z,9.667973
2023-02-07T07:16:05.874Z,9.667981
2023-02-07T07:17:05.812Z,9.667957
2023-02-07T07:18:05.838Z,9.667924
2023-02-07T07:19:05.859Z,9.667971
2023-02-07T07:20:05.849Z,9.667951
2023-02-07T07:21:05.907Z,9.667979
2023-02-07T07:22:37.657Z,9.667949
2023-02-07T07:23:05.731Z,9.667919
2023-02-07T07:24:05.706Z,9.668007
2023-02-07T07:25:05.705Z,9.667994
2023-02-07T07:26:05.721Z,9.667918
2023-02-07T07:27:05.691Z,9.667935
2023-02-07T07:28:05.765Z,9.667915
2023-02-07T07:29:05.759Z,9.667940
2023-02-07T07:30:05.670Z,9.667863
2023-02-07T07:31:05.828Z,9.667878
2023-02-07T07:32:05.779Z,9.667889
2023-02-07T07:33:05.731Z,9.667854
2023-02-07T07:34:06.645Z,9.667855
2023-02-07T07:35:05.635Z,9.667877
2023-02-07T07:36:06.066Z,9.667912
2023-02-07T07:37:05.643Z,9.667875
2023-02-07T07:38:05.603Z,9.667867
2023-02-07T07:39:05.622Z,9.667911
2023-02-07T07:40:05.695Z,9.667873
2023-02-07T07:41:05.636Z,9.667917
2023-02-07T07:42:05.649Z,9.667877
2023-02-07T07:43:05.580Z,9.667889
2023-02-07T07:44:05.875Z,9.667912
2023-02-07T07:45:05.567Z,9.667936
2023-02-07T07:46:05.554Z,9.667914
2023-02-07T07:47:05.554Z,9.667926
2023-02-07T07:48:05.559Z,9.667925
2023-02-07T07:49:05.546Z,9.667929
2023-02-07T07:50:05.533Z,9.667877
2023-02-07T07:51:05.545Z,9.667953
2023-02-07T07:52:06.530Z,9.667968
2023-02-07T07:53:05.696Z,9.667919
2023-02-07T07:54:06.550Z,9.667963
2023-02-07T07:55:05.474Z,9.667924
2023-02-07T07:56:05.474Z,9.667970
2023-02-07T07:57:05.472Z,9.667952
2023-02-07T07:58:05.473Z,9.667935
2023-02-07T07:59:08.771Z,9.667972
2023-02-07T08:00:07.434Z,9.667997
2023-02-07T08:01:05.460Z,9.667967
2023-02-07T08:02:05.459Z,9.667945
2023-02-07T08:03:05.451Z,9.667951
2023-02-07T08:04:05.447Z,9.667974
2023-02-07T08:05:05.421Z,9.667967
2023-02-07T08:06:05.404Z,9.667945
2023-02-07T08:07:05.389Z,9.667993
2023-02-07T08:08:05.386Z,9.667937
2023-02-07T08:09:05.402Z,9.667968
2023-02-07T08:10:05.387Z,9.668012
2023-02-07T08:11:05.366Z,9.667988
2023-02-07T08:12:05.362Z,9.668001
2023-02-07T08:13:05.344Z,9.667995
2023-02-07T08:14:05.362Z,9.668011
2023-02-07T08:15:05.333Z,9.668012
2023-02-07T08:16:05.361Z,9.668012
2023-02-07T08:17:05.303Z,9.668021
2023-02-07T08:18:06.330Z,9.668043
2023-02-07T08:19:05.320Z,9.668013
2023-02-07T08:20:05.310Z,9.668008
2023-02-07T08:21:05.332Z,9.667986
2023-02-07T08:22:05.280Z,9.668013
2023-02-07T08:23:05.276Z,9.668020
2023-02-07T08:24:05.257Z,9.668013
2023-02-07T08:25:05.265Z,9.668061
2023-02-07T08:26:05.275Z,9.667996
2023-02-07T08:27:05.282Z,9.667957
2023-02-07T08:28:05.298Z,9.668026
2023-02-07T08:29:05.346Z,9.667961
2023-02-07T08:30:05.315Z,9.667976
2023-02-07T08:31:05.298Z,9.667996
2023-02-07T08:32:05.221Z,9.667946
2023-02-07T08:33:05.201Z,9.667991
2023-02-07T08:34:05.199Z,9.668039
2023-02-07T08:35:05.188Z,9.668034
2023-02-07T08:36:05.165Z,9.667988
2023-02-07T08:37:05.158Z,9.667974
2023-02-07T08:38:05.185Z,9.667970
2023-02-07T08:39:06.651Z,9.667977
2023-02-07T08:40:06.124Z,9.667983
2023-02-07T08:41:05.132Z,9.668007
2023-02-07T08:42:05.137Z,9.667994
2023-02-07T08:43:05.106Z,9.667995
2023-02-07T08:44:05.125Z,9.667934
2023-02-07T08:45:05.208Z,9.667953
2023-02-07T08:46:05.160Z,9.667955
2023-02-07T08:47:05.121Z,9.668029
2023-02-07T08:48:06.076Z,9.667960
2023-02-07T08:49:05.088Z,9.667991
2023-02-07T08:50:05.057Z,9.667979
2023-02-07T08:51:05.062Z,9.667958
2023-02-07T08:52:05.083Z,9.667954
2023-02-07T08:53:05.073Z,9.667980
2023-02-07T08:54:05.282Z,9.667956
2023-02-07T08:55:05.030Z,9.667964
2023-02-07T08:56:05.021Z,9.667987
2023-02-07T08:57:05.034Z,9.667955
2023-02-07T08:58:05.033Z,9.667965
2023-02-07T08:59:05.021Z,9.667910
2023-02-07T09:00:04.974Z,9.667884
2023-02-07T09:01:05.016Z,9.667979
2023-02-07T09:02:05.007Z,9.667976
2023-02-07T09:03:04.991Z,9.667954
2023-02-07T09:04:04.963Z,9.667940
2023-02-07T09:05:04.988Z,9.667985
2023-02-07T09:06:04.951Z,9.668052
2023-02-07T09:07:04.993Z,9.668009
2023-02-07T09:08:04.949Z,9.667999
2023-02-07T09:09:05.012Z,9.667970
2023-02-07T09:10:04.916Z,9.668025
2023-02-07T09:11:09.172Z,9.667938
2023-02-07T09:12:05.936Z,9.667969
2023-02-07T09:13:04.909Z,9.667991
2023-02-07T09:14:04.908Z,9.667987
2023-02-07T09:15:04.951Z,9.667997
2023-02-07T09:16:04.887Z,9.667997
2023-02-07T09:17:04.870Z,9.668000
2023-02-07T09:18:04.873Z,9.667978
2023-02-07T09:19:04.897Z,9.667934
2023-02-07T09:20:04.844Z,9.667963
2023-02-07T09:21:04.871Z,9.667969
2023-02-07T09:22:04.834Z,9.667912
2023-02-07T09:23:04.823Z,9.668004
2023-02-07T09:24:04.808Z,9.668008
2023-02-07T09:25:04.802Z,9.667895
2023-02-07T09:26:04.828Z,9.668070
2023-02-07T09:27:04.790Z,9.668059
2023-02-07T09:28:04.786Z,9.668022
2023-02-07T09:29:04.790Z,9.668053
2023-02-07T09:30:04.788Z,9.668111
2023-02-07T09:31:05.804Z,9.668020
2023-02-07T09:32:05.774Z,9.667994
2023-02-07T09:33:04.762Z,9.668024
2023-02-07T09:34:04.748Z,9.668109
2023-02-07T09:35:04.733Z,9.668061
2023-02-07T09:36:04.794Z,9.668077
2023-02-07T09:37:04.776Z,9.668096
2023-02-07T09:38:04.700Z,9.668073
2023-02-07T09:39:04.784Z,9.668047
2023-02-07T09:40:04.689Z,9.667970
2023-02-07T09:41:04.697Z,9.667974
2023-02-07T09:42:05.563Z,9.668059
2023-02-07T09:43:05.812Z,9.668070
2023-02-07T09:44:04.770Z,9.668045
2023-02-07T09:45:04.872Z,9.668076
2023-02-07T09:46:05.316Z,9.668176
2023-02-07T09:47:04.658Z,9.668138
2023-02-07T09:48:04.647Z,9.668139
2023-02-07T09:49:04.631Z,9.668117
2023-02-07T09:50:04.618Z,9.668113
2023-02-07T09:51:04.620Z,9.668180
2023-02-07T09:52:04.596Z,9.668149
2023-02-07T09:53:04.633Z,9.668153
2023-02-07T09:54:04.603Z,9.668137
2023-02-07T09:55:04.596Z,9.668127
2023-02-07T09:56:04.578Z,9.668057
2023-02-07T09:57:04.567Z,9.668134
2023-02-07T09:58:04.600Z,9.668176
2023-02-07T09:59:04.563Z,9.668162
2023-02-07T10:00:04.541Z,9.668128
2023-02-07T10:01:04.559Z,9.668161
2023-02-07T10:02:04.505Z,9.668082
2023-02-07T10:03:04.552Z,9.668079
2023-02-07T10:04:04.488Z,9.668063
2023-02-07T10:05:04.488Z,9.668096
2023-02-07T10:06:17.526Z,9.668052
2023-02-07T10:07:06.475Z,9.668032
2023-02-07T10:08:04.511Z,9.667988
2023-02-07T10:09:04.477Z,9.667991
2023-02-07T10:10:04.441Z,9.667993
2023-02-07T10:11:04.459Z,9.667902
2023-02-07T10:12:04.432Z,9.667922
2023-02-07T10:13:04.423Z,9.667975
2023-02-07T10:14:04.460Z,9.667984
2023-02-07T10:15:04.401Z,9.668015
2023-02-07T10:16:04.439Z,9.668004
2023-02-07T10:17:04.426Z,9.668008
2023-02-07T10:18:04.403Z,9.668020
2023-02-07T10:19:04.403Z,9.668029
2023-02-07T10:20:04.361Z,9.667983
2023-02-07T10:21:04.369Z,9.667958
2023-02-07T10:22:04.358Z,9.667969
2023-02-07T10:23:04.386Z,9.667997
2023-02-07T10:24:04.356Z,9.668015
2023-02-07T10:25:04.351Z,9.667987
2023-02-07T10:26:04.361Z,9.668015
2023-02-07T10:27:04.349Z,9.668032
2023-02-07T10:28:04.353Z,9.668078
2023-02-07T10:29:04.333Z,9.668039
2023-02-07T10:30:04.276Z,9.668001
2023-02-07T10:31:05.408Z,9.668017
2023-02-07T10:32:04.336Z,9.668047
2023-02-07T10:33:04.251Z,9.668019
2023-02-07T10:34:04.268Z,9.668036
2023-02-07T10:35:04.276Z,9.668018
2023-02-07T10:36:04.266Z,9.668068
2023-02-07T10:37:04.299Z,9.668043
2023-02-07T10:38:04.233Z,9.668036
2023-02-07T10:39:09.403Z,9.668064
2023-02-07T10:40:06.230Z,9.668094
2023-02-07T10:41:04.219Z,9.668090
2023-02-07T10:42:04.199Z,9.668080
2023-02-07T10:43:04.202Z,9.668083
2023-02-07T10:44:04.175Z,9.668117
2023-02-07T10:45:04.226Z,9.668121
2023-02-07T10:46:06.557Z,9.668041
2023-02-07T10:47:05.168Z,9.668094
2023-02-07T10:48:04.190Z,9.668095
2023-02-07T10:49:04.169Z,9.668123
2023-02-07T10:50:04.169Z,9.668115
2023-02-07T10:51:04.217Z,9.668084
2023-02-07T10:52:04.141Z,9.668118
2023-02-07T10:53:04.692Z,9.668074
2023-02-07T10:54:04.112Z,9.668097
2023-02-07T10:55:04.109Z,9.668100
2023-02-07T10:56:04.101Z,9.668111
2023-02-07T10:57:04.156Z,9.668118
2023-02-07T10:58:17.693Z,9.668102
2023-02-07T10:59:06.118Z,9.668074
2023-02-07T11:00:04.056Z,9.668079
2023-02-07T11:01:04.064Z,9.668099
2023-02-07T11:02:04.092Z,9.668128
2023-02-07T11:03:04.134Z,9.668155
2023-02-07T11:04:04.052Z,9.668098
2023-02-07T11:05:04.049Z,9.668104
2023-02-07T11:06:04.090Z,9.668113
2023-02-07T11:07:04.033Z,9.668126
2023-02-07T11:08:04.074Z,9.668114
2023-02-07T11:09:04.399Z,9.668119
2023-02-07T11:10:03.995Z,9.668087
2023-02-07T11:11:03.989Z,9.668084
2023-02-07T11:12:04.024Z,9.668069
2023-02-07T11:13:04.048Z,9.668119
2023-02-07T11:14:04.045Z,9.668107
2023-02-07T11:15:03.973Z,9.668116
2023-02-07T11:16:04.214Z,9.668122
2023-02-07T11:17:03.943Z,9.668077
2023-02-07T11:18:03.954Z,9.668117
2023-02-07T11:19:03.920Z,9.668130
2023-02-07T11:20:03.926Z,9.668091
2023-02-07T11:21:03.922Z,9.668149
2023-02-07T11:22:03.907Z,9.668198
2023-02-07T11:23:03.915Z,9.668161
2023-02-07T11:24:03.916Z,9.668169
2023-02-07T11:25:03.856Z,9.668181
2023-02-07T11:26:03.855Z,9.668153
2023-02-07T11:27:03.888Z,9.668184
2023-02-07T11:28:03.900Z,9.668120
2023-02-07T11:29:03.854Z,9.668127
2023-02-07T11:30:03.834Z,9.668106
2023-02-07T11:31:03.900Z,9.668134
2023-02-07T11:32:03.805Z,9.668120
2023-02-07T11:33:03.796Z,9.668118
2023-02-07T11:34:03.818Z,9.668107
2023-02-07T11:35:03.776Z,9.668123
2023-02-07T11:36:03.793Z,9.668097
2023-02-07T11:37:03.788Z,9.668135
2023-02-07T11:38:04.777Z,9.668131
2023-02-07T11:39:04.875Z,9.668146
2023-02-07T11:40:03.770Z,9.668085
2023-02-07T11:41:03.737Z,9.668127
2023-02-07T11:42:03.741Z,9.668099
2023-02-07T11:43:03.753Z,9.668103
2023-02-07T11:44:03.711Z,9.668066
2023-02-07T11:45:03.743Z,9.668125
2023-02-07T11:46:03.702Z,9.668110
2023-02-07T11:47:03.727Z,9.668116
2023-02-07T11:48:03.678Z,9.668108
2023-02-07T11:49:03.661Z,9.668080
2023-02-07T11:50:03.697Z,9.668096
2023-02-07T11:51:03.735Z,9.668046
2023-02-07T11:52:03.647Z,9.668042
2023-02-07T11:53:03.660Z,9.668105
2023-02-07T11:54:03.659Z,9.668060
2023-02-07T11:55:03.772Z,9.668010
2023-02-07T11:56:03.638Z,9.668093
2023-02-07T11:57:03.679Z,9.668070
2023-02-07T11:58:03.618Z,9.668088
2023-02-07T11:59:03.605Z,9.668077
2023-02-07T12:00:03.617Z,9.668017
2023-02-07T12:01:03.612Z,9.668028
2023-02-07T12:02:03.635Z,9.668061
2023-02-07T12:03:03.574Z,9.668068